Time;durP1;ratioP1;P1;durP2;ratioP2;P2;SDS_P1;SDS_P2;PMS_P1;PMS_P2;Temp;Humidity;BMP_temperature;BMP_pressure;BME280_temperature;BME280_humidity;BME280_pressure;Samples;Min_cycle;Max_cycle;Signal;HPM_P1;HPM_P2
2023/06/25 00:01:30;;;;;;;0.57;0.57;;;;;;;20.12;100.00;97610.78;5039177;28;20029;-77
2023/06/25 00:03:56;;;;;;;0.90;0.32;;;;;;;20.08;100.00;97607.50;5055599;28;20021;-78
2023/06/25 00:06:22;;;;;;;0.10;0.10;;;;;;;20.11;100.00;97614.50;5055817;28;20119;-78
2023/06/25 00:08:48;;;;;;;0.20;0.20;;;;;;;20.12;100.00;97608.06;5055451;28;20028;-77
2023/06/25 00:11:14;;;;;;;0.30;0.20;;;;;;;20.08;100.00;97606.66;5055276;28;20020;-76
2023/06/25 00:13:40;;;;;;;0.45;0.40;;;;;;;20.07;100.00;97602.22;5038147;28;20094;-77
2023/06/25 00:16:07;;;;;;;1.30;0.50;;;;;;;19.97;100.00;97603.13;5023242;28;20077;-76
2023/06/25 00:18:33;;;;;;;0.32;0.32;;;;;;;19.99;100.00;97613.84;5054812;28;20020;-77
2023/06/25 00:20:59;;;;;;;1.02;0.28;;;;;;;20.05;100.00;97612.38;5054554;28;20021;-77
2023/06/25 00:23:24;;;;;;;0.30;0.30;;;;;;;20.03;100.00;97605.22;5054990;28;20031;-77
2023/06/25 00:25:50;;;;;;;1.55;0.45;;;;;;;20.05;100.00;97612.38;5037653;28;20043;-76
2023/06/25 00:28:16;;;;;;;0.95;0.40;;;;;;;20.00;100.00;97604.69;5053749;28;20028;-77
2023/06/25 00:30:41;;;;;;;3.05;1.80;;;;;;;20.05;100.00;97606.94;5037888;28;20122;-77
2023/06/25 00:33:07;;;;;;;0.40;0.40;;;;;;;20.05;100.00;97598.81;5072509;28;20031;-76
2023/06/25 00:35:58;;;;;;;1.25;0.80;;;;;;;19.95;100.00;97607.00;5072504;28;20029;-77
2023/06/25 00:38:24;;;;;;;1.63;0.90;;;;;;;19.98;100.00;97598.56;5062876;28;20047;-76
2023/06/25 00:40:50;;;;;;;0.47;0.47;;;;;;;19.97;100.00;97592.25;5054209;28;20024;-76
2023/06/25 00:43:16;;;;;;;0.10;0.10;;;;;;;19.95;100.00;97597.00;5054709;28;20130;-76
2023/06/25 00:45:42;;;;;;;2.42;0.90;;;;;;;20.00;100.00;97596.53;5037553;28;20036;-77
2023/06/25 00:48:08;;;;;;;2.63;0.40;;;;;;;19.98;100.00;97580.41;5037637;28;20492;-76
2023/06/25 00:50:34;;;;;;;2.20;0.90;;;;;;;20.12;100.00;97587.16;5037761;28;20039;-77
2023/06/25 00:53:01;;;;;;;0.35;0.32;;;;;;;20.12;100.00;97591.75;5054442;28;20032;-77
2023/06/25 00:55:27;;;;;;;0.45;0.45;;;;;;;20.07;100.00;97594.06;5037703;28;20029;-77
2023/06/25 00:57:55;;;;;;;0.63;0.55;;;;;;;20.02;100.00;97592.69;5053968;28;20036;-78
2023/06/25 01:00:25;;;;;;;1.27;0.38;;;;;;;20.06;100.00;97587.78;5037871;28;20028;-77
2023/06/25 01:03:04;;;;;;;0.47;0.47;;;;;;;20.09;100.00;97586.63;5037496;28;20028;-77
2023/06/25 01:05:53;;;;;;;0.20;0.20;;;;;;;20.10;100.00;97591.03;5046467;28;20137;-79
2023/06/25 01:08:21;;;;;;;0.32;0.32;;;;;;;20.12;100.00;97589.88;5028932;28;20093;-77
2023/06/25 01:10:47;;;;;;;0.88;0.17;;;;;;;20.07;100.00;97583.19;5026569;28;20029;-77
2023/06/25 01:13:12;;;;;;;0.50;0.50;;;;;;;20.05;100.00;97580.66;5037710;28;20467;-77
2023/06/25 01:15:38;;;;;;;1.95;0.65;;;;;;;20.11;100.00;97574.59;5037474;28;20507;-79
2023/06/25 01:18:04;;;;;;;0.93;0.88;;;;;;;20.09;100.00;97581.22;5037539;28;20036;-78
2023/06/25 01:20:30;;;;;;;3.10;0.60;;;;;;;20.08;100.00;97579.50;5054391;28;20515;-78
2023/06/25 01:22:56;;;;;;;0.80;0.38;;;;;;;20.07;100.00;97570.47;5054255;28;20111;-77
2023/06/25 01:25:21;;;;;;;0.63;0.55;;;;;;;20.05;100.00;97574.38;5054141;28;20020;-77
2023/06/25 01:27:48;;;;;;;0.85;0.70;;;;;;;20.14;100.00;97568.88;5053556;28;20024;-77
2023/06/25 01:30:15;;;;;;;1.55;0.75;;;;;;;20.18;100.00;97569.41;5037580;28;20412;-77
2023/06/25 01:32:41;;;;;;;1.17;0.73;;;;;;;20.13;100.00;97572.59;5054154;28;20119;-77
2023/06/25 01:35:16;;;;;;;0.45;0.45;;;;;;;20.12;100.00;97575.47;5071310;28;20031;-77
2023/06/25 01:37:42;;;;;;;2.13;0.45;;;;;;;20.07;100.00;97575.06;5046488;28;20119;-78
2023/06/25 01:40:08;;;;;;;1.50;0.60;;;;;;;19.93;100.00;97568.31;5070905;28;20108;-77
2023/06/25 01:42:35;;;;;;;0.30;0.30;;;;;;;19.91;100.00;97567.56;5053114;28;20028;-77
2023/06/25 01:45:01;;;;;;;0.50;0.25;;;;;;;19.85;100.00;97566.34;5053001;28;20021;-77
2023/06/25 01:47:26;;;;;;;0.55;0.55;;;;;;;19.88;100.00;97559.72;5036406;28;20500;-77
2023/06/25 01:49:52;;;;;;;0.63;0.35;;;;;;;19.92;100.00;97574.72;5052941;28;20028;-77
2023/06/25 01:52:17;;;;;;;2.40;0.28;;;;;;;19.91;100.00;97568.44;5052890;28;20101;-77
2023/06/25 01:54:43;;;;;;;1.10;1.00;;;;;;;19.99;100.00;97570.41;5036104;28;20028;-77
2023/06/25 01:57:08;;;;;;;0.98;0.40;;;;;;;20.02;100.00;97573.66;5053661;28;20489;-78
2023/06/25 01:59:35;;;;;;;2.17;1.17;;;;;;;19.97;100.00;97578.69;5053552;28;20074;-78
2023/06/25 02:02:03;;;;;;;9.82;2.38;;;;;;;19.98;100.00;97577.69;5052643;28;20042;-77
2023/06/25 02:04:29;;;;;;;11.27;1.15;;;;;;;19.99;100.00;97576.66;5036393;28;20483;-78
2023/06/25 02:06:55;;;;;;;1.15;0.63;;;;;;;19.98;100.00;97574.97;5053231;28;20043;-77
2023/06/25 02:09:21;;;;;;;3.20;1.33;;;;;;;20.06;100.00;97573.38;5033601;28;20036;-77
2023/06/25 02:11:46;;;;;;;2.47;1.08;;;;;;;19.95;100.00;97578.00;5070903;28;20028;-78
2023/06/25 02:14:12;;;;;;;0.65;0.52;;;;;;;19.98;100.00;97584.97;5052756;28;20028;-77
2023/06/25 02:16:38;;;;;;;7.30;1.23;;;;;;;19.90;100.00;97572.16;5047073;28;20496;-77
2023/06/25 02:19:03;;;;;;;0.13;0.13;;;;;;;19.96;100.00;97578.84;5052366;28;20484;-78
2023/06/25 02:21:29;;;;;;;0.63;0.60;;;;;;;19.97;100.00;97581.41;5036231;28;20040;-77
2023/06/25 02:23:54;;;;;;;0.25;0.20;;;;;;;19.97;100.00;97575.13;5035616;28;20059;-77
2023/06/25 02:26:20;;;;;;;0.45;0.38;;;;;;;19.97;100.00;97573.25;5052528;28;20067;-77
2023/06/25 02:28:46;;;;;;;26.73;1.10;;;;;;;20.03;100.00;97571.78;5052729;28;20055;-77
2023/06/25 02:31:11;;;;;;;1.77;0.90;;;;;;;20.12;100.00;97570.03;5052566;28;20033;-77
2023/06/25 02:33:37;;;;;;;1.92;0.60;;;;;;;20.14;100.00;97568.88;5036039;28;20039;-77
2023/06/25 02:36:02;;;;;;;1.27;0.63;;;;;;;20.00;100.00;97572.09;5052808;28;20025;-77
2023/06/25 02:38:28;;;;;;;0.55;0.55;;;;;;;20.06;100.00;97568.75;5035987;28;20438;-77
2023/06/25 02:40:53;;;;;;;0.35;0.35;;;;;;;20.01;100.00;97569.25;5036166;28;20111;-77
2023/06/25 02:43:19;;;;;;;0.65;0.25;;;;;;;20.03;100.00;97566.34;5070774;28;20021;-77
2023/06/25 02:45:44;;;;;;;0.52;0.52;;;;;;;20.06;100.00;97565.22;5035913;28;20024;-77
2023/06/25 02:48:10;;;;;;;1.23;0.55;;;;;;;20.14;100.00;97578.88;5051895;28;20052;-77
2023/06/25 02:50:35;;;;;;;0.50;0.50;;;;;;;20.11;100.00;97574.59;5053007;28;20027;-77
2023/06/25 02:53:01;;;;;;;0.40;0.40;;;;;;;20.09;100.00;97581.22;5056890;28;20055;-77
2023/06/25 02:55:27;;;;;;;8.55;2.08;;;;;;;20.11;100.00;97579.19;5056261;28;20030;-78
2023/06/25 02:57:52;;;;;;;0.68;0.68;;;;;;;20.14;100.00;97585.16;5039961;28;20024;-77
2023/06/25 03:00:18;;;;;;;0.35;0.32;;;;;;;20.16;100.00;97583.13;5056583;28;20016;-77
2023/06/25 03:02:43;;;;;;;1.17;1.00;;;;;;;20.22;100.00;97587.09;5056574;28;20058;-78
2023/06/25 03:05:09;;;;;;;0.20;0.20;;;;;;;20.16;100.00;97579.56;5039351;28;20033;-77
2023/06/25 03:07:34;;;;;;;0.30;0.30;;;;;;;20.02;100.00;97580.97;5056207;28;20435;-77
2023/06/25 03:10:00;;;;;;;0.30;0.30;;;;;;;19.97;100.00;97591.41;5039736;28;20086;-77
2023/06/25 03:12:25;;;;;;;0.43;0.43;;;;;;;20.02;100.00;97581.81;5056404;28;20078;-77
2023/06/25 03:14:51;;;;;;;0.20;0.20;;;;;;;20.12;100.00;97586.34;5073700;28;20047;-77
2023/06/25 03:17:16;;;;;;;0.98;0.50;;;;;;;20.13;100.00;97579.88;5039598;28;20059;-78
2023/06/25 03:19:42;;;;;;;0.30;0.30;;;;;;;20.18;100.00;97586.53;5055734;28;20028;-77
2023/06/25 03:22:07;;;;;;;0.90;0.73;;;;;;;20.14;100.00;97590.59;5056258;28;20381;-78
2023/06/25 03:24:33;;;;;;;0.73;0.73;;;;;;;20.23;100.00;97595.09;5055887;28;20031;-78
2023/06/25 03:26:59;;;;;;;1.48;0.88;;;;;;;20.22;100.00;97579.81;5039226;28;20047;-78
2023/06/25 03:29:24;;;;;;;0.63;0.60;;;;;;;20.24;100.00;97585.09;5055591;28;20473;-78
2023/06/25 03:31:50;;;;;;;0.20;0.20;;;;;;;20.25;100.00;97575.91;5055485;28;20028;-77
2023/06/25 03:34:15;;;;;;;0.30;0.30;;;;;;;20.19;100.00;97573.81;5038948;28;20028;-77
2023/06/25 03:36:41;;;;;;;0.70;0.70;;;;;;;20.18;100.00;97569.41;5055546;28;20032;-78
2023/06/25 03:39:06;;;;;;;3.00;0.52;;;;;;;20.15;100.00;97567.00;5039022;28;20021;-78
2023/06/25 03:41:32;;;;;;;0.85;0.65;;;;;;;20.18;100.00;97572.97;5073501;28;20380;-78
2023/06/25 03:43:57;;;;;;;0.57;0.57;;;;;;;20.20;100.00;97584.56;5055157;28;20060;-77
2023/06/25 03:46:23;;;;;;;0.82;0.38;;;;;;;20.23;100.00;97586.09;5038742;28;20035;-77
2023/06/25 03:48:48;;;;;;;2.60;1.15;;;;;;;20.29;100.00;97593.66;5054926;28;20037;-78
2023/06/25 03:51:14;;;;;;;1.20;0.57;;;;;;;20.33;100.00;97579.59;5049698;28;20098;-78
2023/06/25 03:53:39;;;;;;;1.65;1.02;;;;;;;20.45;100.00;97596.56;5073123;28;20472;-78
2023/06/25 03:56:05;;;;;;;0.95;0.85;;;;;;;20.44;100.00;97597.56;5038457;28;20024;-78
2023/06/25 03:58:30;;;;;;;6.40;0.57;;;;;;;20.47;100.00;97600.81;5055312;28;20051;-78
2023/06/25 04:00:56;;;;;;;7.28;0.90;;;;;;;20.49;100.00;97597.94;5055151;28;20547;-78
2023/06/25 04:03:22;;;;;;;3.35;1.40;;;;;;;20.45;100.00;97599.28;5054309;28;20027;-78
2023/06/25 04:05:48;;;;;;;0.30;0.30;;;;;;;20.49;100.00;97606.94;5038642;28;20029;-78
2023/06/25 04:08:14;;;;;;;4.13;1.48;;;;;;;20.46;100.00;97611.84;5055018;28;20063;-78
2023/06/25 04:10:40;;;;;;;0.60;0.40;;;;;;;20.58;100.00;97610.59;5054974;28;20460;-77
2023/06/25 04:13:06;;;;;;;1.20;0.85;;;;;;;20.54;100.00;97612.78;5054916;28;20021;-77
2023/06/25 04:15:32;;;;;;;0.30;0.25;;;;;;;20.60;100.00;97607.72;5072770;28;20499;-77
2023/06/25 04:17:57;;;;;;;0.50;0.50;;;;;;;20.62;100.00;97605.69;5054992;28;20025;-77
2023/06/25 04:20:26;;;;;;;1.67;0.38;;;;;;;20.54;100.00;97601.06;5054671;28;20024;-77
2023/06/25 04:22:51;;;;;;;4.90;1.50;;;;;;;20.58;100.00;97613.31;5038405;28;20028;-77
2023/06/25 04:25:17;;;;;;;6.93;1.60;;;;;;;20.60;100.00;97614.03;5055023;28;20024;-77
2023/06/25 04:27:42;;;;;;;2.75;1.05;;;;;;;20.64;100.00;97614.56;5054872;28;20021;-77
2023/06/25 04:30:08;;;;;;;0.93;0.60;;;;;;;20.60;100.00;97619.47;5038078;28;20020;-77
2023/06/25 04:32:34;;;;;;;1.38;0.85;;;;;;;20.63;100.00;97630.03;5054666;28;20024;-77
2023/06/25 04:35:00;;;;;;;1.50;0.95;;;;;;;20.67;100.00;97636.88;5072253;28;20024;-78
2023/06/25 04:37:26;;;;;;;0.25;0.25;;;;;;;20.65;100.00;97638.88;5054532;28;20020;-78
2023/06/25 04:39:51;;;;;;;2.80;1.58;;;;;;;20.66;100.00;97631.56;5037799;28;20521;-77
2023/06/25 04:42:17;;;;;;;1.30;1.20;;;;;;;20.69;100.00;97634.84;5054560;28;20032;-77
2023/06/25 04:44:42;;;;;;;0.25;0.25;;;;;;;20.61;100.00;97632.03;5054641;28;20031;-81
2023/06/25 04:47:08;;;;;;;1.77;0.80;;;;;;;20.60;100.00;97630.34;5055068;28;20510;-82
2023/06/25 04:49:33;;;;;;;0.25;0.25;;;;;;;20.56;100.00;97637.09;5039807;28;20029;-78
2023/06/25 04:51:59;;;;;;;0.63;0.55;;;;;;;20.54;100.00;97631.81;5055293;28;20029;-78
2023/06/25 04:54:24;;;;;;;1.05;0.38;;;;;;;20.63;100.00;97646.34;5072650;28;20028;-78
2023/06/25 04:56:50;;;;;;;0.75;0.47;;;;;;;20.63;100.00;97640.03;5038361;28;20032;-79
2023/06/25 04:59:15;;;;;;;1.98;1.02;;;;;;;20.44;100.00;97641.91;5056015;28;20079;-76
2023/06/25 05:01:41;;;;;;;0.93;0.43;;;;;;;20.47;100.00;97635.28;5064669;28;20071;-78
2023/06/25 05:04:06;;;;;;;0.93;0.73;;;;;;;20.56;100.00;97653.41;5018155;28;20025;-78
2023/06/25 05:06:32;;;;;;;0.50;0.50;;;;;;;20.54;100.00;97649.97;5018266;28;20504;-78
2023/06/25 05:08:57;;;;;;;0.70;0.63;;;;;;;20.53;100.00;97648.25;5017824;28;20115;-78
2023/06/25 05:11:23;;;;;;;1.25;0.73;;;;;;;20.66;100.00;97667.78;5034614;28;20025;-79
2023/06/25 05:13:48;;;;;;;1.08;0.98;;;;;;;20.68;100.00;97660.31;5018004;28;20025;-80
2023/06/25 05:16:14;;;;;;;0.77;0.50;;;;;;;20.68;100.00;97662.16;5028764;28;20028;-78
2023/06/25 05:18:41;;;;;;;2.85;1.23;;;;;;;20.68;100.00;97659.44;5042180;28;20456;-81
2023/06/25 05:21:06;;;;;;;0.47;0.45;;;;;;;20.70;100.00;97669.19;5050544;28;20035;-77
2023/06/25 05:23:44;;;;;;;3.58;2.38;;;;;;;20.58;100.00;97662.22;5041871;28;20028;-77
2023/06/25 05:26:10;;;;;;;1.00;0.82;;;;;;;20.60;100.00;97657.53;5048701;28;20056;-79
2023/06/25 05:28:35;;;;;;;1.42;0.52;;;;;;;20.58;100.00;97654.06;5068467;28;20031;-78
2023/06/25 05:31:01;;;;;;;1.20;1.10;;;;;;;20.63;100.00;97667.22;5050173;28;20052;-78
2023/06/25 05:33:26;;;;;;;0.35;0.28;;;;;;;20.49;100.00;97664.03;5034085;28;20403;-78
2023/06/25 05:35:52;;;;;;;0.10;0.10;;;;;;;20.37;100.00;97659.81;5067833;28;20033;-78
2023/06/25 05:38:17;;;;;;;0.45;0.45;;;;;;;20.46;100.00;97660.75;5030468;28;20183;-79
2023/06/25 05:40:43;;;;;;;0.70;0.70;;;;;;;20.47;100.00;97651.59;5037316;28;20479;-77
2023/06/25 05:43:08;;;;;;;1.55;1.02;;;;;;;20.41;100.00;97634.06;5023212;28;20029;-78
2023/06/25 05:45:34;;;;;;;1.40;0.20;;;;;;;20.51;100.00;97636.69;5021005;28;20021;-78
2023/06/25 05:47:59;;;;;;;2.05;0.68;;;;;;;20.54;100.00;97637.25;5031888;28;20055;-76
2023/06/25 05:50:25;;;;;;;0.68;0.63;;;;;;;20.50;100.00;97630.41;5050290;28;20121;-78
2023/06/25 05:52:51;;;;;;;0.55;0.35;;;;;;;20.41;100.00;97634.06;5068306;28;20031;-78
2023/06/25 05:55:16;;;;;;;0.88;0.88;;;;;;;20.43;100.00;97629.31;5033157;28;20017;-78
2023/06/25 05:57:42;;;;;;;0.55;0.55;;;;;;;20.47;100.00;97630.72;5050256;28;20165;-78
2023/06/25 06:00:11;;;;;;;0.52;0.52;;;;;;;20.39;100.00;97616.19;5033353;28;20578;-78
2023/06/25 06:02:36;;;;;;;2.88;0.95;;;;;;;20.47;100.00;97618.97;5033524;28;20407;-80
2023/06/25 06:05:02;;;;;;;0.82;0.52;;;;;;;20.49;100.00;97627.81;5033066;28;20024;-79
2023/06/25 06:07:27;;;;;;;2.30;1.13;;;;;;;20.45;100.00;97626.44;5033146;28;20031;-79
2023/06/25 06:09:53;;;;;;;0.30;0.30;;;;;;;20.51;100.00;97629.41;5033168;28;20514;-79
2023/06/25 06:12:18;;;;;;;1.15;0.73;;;;;;;20.65;100.00;97638.00;5033067;28;20099;-80
2023/06/25 06:14:44;;;;;;;0.73;0.57;;;;;;;20.63;100.00;97627.31;5067853;28;20037;-77
2023/06/25 06:17:09;;;;;;;0.47;0.47;;;;;;;20.74;100.00;97632.50;5032880;28;20044;-77
2023/06/25 06:19:35;;;;;;;0.75;0.73;;;;;;;20.86;100.00;97624.94;5067869;28;20032;-78
2023/06/25 06:22:01;;;;;;;5.35;2.22;;;;;;;20.85;100.00;97617.81;5033158;28;20028;-78
2023/06/25 06:24:27;;;;;;;1.80;1.00;;;;;;;20.89;100.00;97611.88;5032926;28;20107;-78
2023/06/25 06:26:53;;;;;;;2.83;1.30;;;;;;;20.92;100.00;97614.28;5035908;28;20432;-77
2023/06/25 06:29:19;;;;;;;1.10;1.00;;;;;;;20.93;100.00;97615.16;5071698;28;20032;-81
2023/06/25 06:31:45;;;;;;;1.15;1.05;;;;;;;20.90;100.00;97621.78;5037298;28;20119;-80
2023/06/25 06:34:10;;;;;;;3.10;2.13;;;;;;;20.99;100.00;97634.41;5037126;28;20124;-78
2023/06/25 06:36:36;;;;;;;10.23;2.03;;;;;;;21.02;100.00;97625.94;5071737;28;20516;-78
2023/06/25 06:39:02;;;;;;;0.52;0.52;;;;;;;21.01;100.00;97632.38;5035487;28;20032;-77
2023/06/25 06:41:28;;;;;;;0.70;0.57;;;;;;;20.99;100.00;97620.81;5034502;28;20025;-79
2023/06/25 06:43:53;;;;;;;4.75;0.93;;;;;;;21.03;100.00;97622.22;5037148;28;20043;-79
2023/06/25 06:46:19;;;;;;;0.85;0.85;;;;;;;20.98;100.00;97600.06;5053470;28;20055;-79
2023/06/25 06:48:44;;;;;;;1.27;0.73;;;;;;;21.06;100.00;97594.69;5036869;28;20053;-80
2023/06/25 06:51:10;;;;;;;1.80;0.77;;;;;;;21.19;100.00;97598.91;5052281;28;20074;-80
2023/06/25 06:53:35;;;;;;;0.43;0.43;;;;;;;21.36;100.00;97592.53;5035740;28;20071;-81
2023/06/25 06:56:01;;;;;;;4.32;1.10;;;;;;;21.51;100.00;97599.09;5036932;28;20539;-80
2023/06/25 06:58:26;;;;;;;4.45;3.25;;;;;;;21.56;100.00;97594.84;5036376;28;20028;-79
2023/06/25 07:00:52;;;;;;;2.25;1.38;;;;;;;21.67;100.00;97580.13;5036945;28;20035;-81
2023/06/25 07:03:17;;;;;;;2.72;0.95;;;;;;;21.90;100.00;97578.53;5053270;28;20476;-79
2023/06/25 07:05:43;;;;;;;0.65;0.63;;;;;;;22.10;100.00;97560.91;5053437;28;20059;-79
2023/06/25 07:08:08;;;;;;;0.60;0.35;;;;;;;22.29;100.00;97553.44;5036130;28;20043;-78
2023/06/25 07:10:35;;;;;;;2.47;0.82;;;;;;;22.47;100.00;97538.66;5036198;28;20028;-79
2023/06/25 07:13:01;;;;;;;2.22;2.00;;;;;;;22.51;100.00;97542.75;5053239;28;20586;-79
2023/06/25 07:15:26;;;;;;;3.15;1.40;;;;;;;22.52;100.00;97538.13;5036272;28;20131;-80
2023/06/25 07:17:52;;;;;;;1.10;0.95;;;;;;;22.36;100.00;97530.81;5070832;28;20178;-79
2023/06/25 07:20:18;;;;;;;0.95;0.77;;;;;;;22.35;100.00;97528.25;5036487;28;20484;-80
2023/06/25 07:22:43;;;;;;;0.20;0.20;;;;;;;22.47;100.00;97535.06;5035970;28;20035;-80
2023/06/25 07:25:10;;;;;;;5.47;2.80;;;;;;;22.49;100.00;97533.88;5052849;28;20033;-80
2023/06/25 07:27:35;;;;;;;3.50;3.08;;;;;;;22.52;100.00;97527.22;5053077;28;20032;-81
2023/06/25 07:30:03;;;;;;;1.95;1.75;;;;;;;22.61;100.00;97532.50;5036257;28;20108;-78
2023/06/25 07:32:29;;;;;;;7.72;3.55;;;;;;;22.75;100.00;97524.72;5032415;28;20047;-78
2023/06/25 07:34:55;;;;;;;2.40;1.35;;;;;;;22.89;100.00;97516.66;5024052;28;20029;-79
2023/06/25 07:37:22;;;;;;;1.20;1.10;;;;;;;23.01;100.00;97519.91;5032572;28;20039;-80
2023/06/25 07:39:48;;;;;;;2.78;2.33;;;;;;;22.70;100.00;97519.78;5050027;28;20033;-79
2023/06/25 07:42:14;;;;;;;1.13;0.93;;;;;;;22.87;100.00;97526.91;5026411;28;20078;-79
2023/06/25 07:44:39;;;;;;;1.75;1.02;;;;;;;23.09;100.00;97530.81;5019937;28;20043;-79
2023/06/25 07:47:05;;;;;;;0.65;0.65;;;;;;;23.19;100.00;97518.66;5052810;28;20036;-79
2023/06/25 07:49:30;;;;;;;4.47;0.73;;;;;;;23.32;100.00;97511.81;5070276;28;20484;-81
2023/06/25 07:51:56;;;;;;;0.47;0.47;;;;;;;23.26;100.00;97502.44;5052507;28;20024;-79
2023/06/25 07:54:22;;;;;;;2.13;0.50;;;;;;;23.52;100.00;97507.69;5050967;28;20115;-79
2023/06/25 07:56:48;;;;;;;0.30;0.30;;;;;;;23.69;100.00;97518.34;5052245;28;20408;-78
2023/06/25 07:59:14;;;;;;;0.45;0.45;;;;;;;23.88;100.00;97508.88;5052240;28;20024;-80
2023/06/25 08:01:40;;;;;;;1.13;0.43;;;;;;;24.29;100.00;97504.03;5052150;28;20028;-79
2023/06/25 08:04:06;;;;;;;1.13;1.02;;;;;;;24.68;100.00;97491.06;5070123;28;20175;-78
2023/06/25 08:06:32;;;;;;;0.47;0.40;;;;;;;24.94;100.00;97478.91;5052182;28;20492;-79
2023/06/25 08:08:57;;;;;;;0.70;0.68;;;;;;;24.97;100.00;97473.06;5035223;28;20391;-78
2023/06/25 08:11:23;;;;;;;0.73;0.73;;;;;;;25.14;100.00;97475.44;5035549;28;20028;-78
2023/06/25 08:13:48;;;;;;;0.28;0.28;;;;;;;25.46;100.00;97473.34;5051970;28;20408;-78
2023/06/25 08:16:14;;;;;;;0.35;0.32;;;;;;;25.66;100.00;97463.53;5047956;28;20270;-78
2023/06/25 08:18:39;;;;;;;0.65;0.65;;;;;;;25.94;100.00;97469.16;5051782;28;20051;-78
2023/06/25 08:21:05;;;;;;;1.20;0.68;;;;;;;25.92;100.00;97469.34;5051827;28;20039;-78
2023/06/25 08:23:30;;;;;;;0.30;0.30;;;;;;;25.85;100.00;97458.31;5051642;28;20040;-78
2023/06/25 08:25:56;;;;;;;0.13;0.13;;;;;;;25.87;100.00;97469.09;5029722;28;20024;-78
2023/06/25 08:28:22;;;;;;;1.08;0.45;;;;;;;26.01;100.00;97468.19;5051712;28;20080;-79
2023/06/25 08:30:47;;;;;;;0.43;0.40;;;;;;;26.18;100.00;97461.44;5034859;28;20037;-78
2023/06/25 08:33:13;;;;;;;51.53;6.43;;;;;;;26.27;100.00;97463.00;5051718;28;20032;-79
2023/06/25 08:35:38;;;;;;;1.20;0.95;;;;;;;26.41;100.00;97469.50;5048786;28;20029;-79
2023/06/25 08:38:04;;;;;;;0.50;0.50;;;;;;;26.71;100.00;97453.72;5035016;28;20024;-78
2023/06/25 08:40:35;;;;;;;0.20;0.20;;;;;;;27.19;100.00;97463.00;5049989;28;20028;-79
2023/06/25 08:43:00;;;;;;;1.77;0.38;;;;;;;27.38;100.00;97451.25;5051105;28;20416;-78
2023/06/25 08:45:26;;;;;;;2.20;1.45;;;;;;;27.35;100.00;97441.53;5051431;28;20017;-78
2023/06/25 08:47:55;;;;;;;0.82;0.63;;;;;;;27.17;100.00;97438.47;5034622;28;20055;-78
2023/06/25 08:50:20;;;;;;;0.60;0.60;;;;;;;27.10;100.00;97444.97;5033829;28;20032;-79
2023/06/25 08:52:47;;;;;;;2.45;1.70;;;;;;;27.16;100.00;97441.44;5051492;28;20106;-79
2023/06/25 08:55:13;;;;;;;0.47;0.47;;;;;;;27.41;100.00;97431.63;5050889;28;20452;-78
2023/06/25 08:57:38;;;;;;;0.47;0.47;;;;;;;28.05;100.00;97443.19;5052106;28;20181;-79
2023/06/25 09:00:06;;;;;;;0.20;0.20;;;;;;;28.12;100.00;97443.19;5034690;28;20123;-79
2023/06/25 09:02:32;;;;;;;0.70;0.70;;;;;;;28.50;100.00;97434.16;5051808;28;20029;-79
2023/06/25 09:05:07;;;;;;;0.20;0.20;;;;;;;27.22;100.00;97435.97;5069664;28;20040;-78
2023/06/25 09:07:35;;;;;;;1.13;0.63;;;;;;;27.05;100.00;97429.09;5051815;28;20032;-78
2023/06/25 09:10:01;;;;;;;0.50;0.50;;;;;;;26.90;100.00;97431.94;5050881;28;20024;-78
2023/06/25 09:12:27;;;;;;;0.22;0.20;;;;;;;26.92;100.00;97439.97;5069061;28;20028;-78
2023/06/25 09:14:52;;;;;;;0.10;0.10;;;;;;;27.00;100.00;97425.25;5050563;28;20047;-79
2023/06/25 09:17:22;;;;;;;1.08;1.05;;;;;;;27.01;100.00;97433.28;5050901;28;20043;-79
2023/06/25 09:19:47;;;;;;;0.57;0.57;;;;;;;27.05;100.00;97433.72;5034188;28;20050;-79
2023/06/25 09:22:13;;;;;;;1.00;0.82;;;;;;;27.31;100.00;97426.53;5036164;28;20036;-79
2023/06/25 09:24:43;;;;;;;0.65;0.65;;;;;;;27.49;100.00;97426.00;5035974;28;20111;-79
2023/06/25 09:27:10;;;;;;;0.40;0.20;;;;;;;27.59;100.00;97422.88;5036445;28;20060;-78
2023/06/25 09:29:37;;;;;;;2.25;0.60;;;;;;;28.09;100.00;97424.34;5053419;28;20425;-79
2023/06/25 09:32:07;;;;;;;0.47;0.47;;;;;;;28.60;100.00;97397.09;5035995;28;20040;-78
2023/06/25 09:34:33;;;;;;;1.10;0.55;;;;;;;29.41;100.00;97410.38;5046373;28;20028;-78
2023/06/25 09:37:01;;;;;;;0.52;0.50;;;;;;;29.17;100.00;97405.53;5052975;28;20039;-78
2023/06/25 09:39:27;;;;;;;0.95;0.55;;;;;;;29.88;100.00;97406.41;5044802;28;20498;-80
2023/06/25 09:41:53;;;;;;;3.60;1.15;;;;;;;30.80;100.00;97397.50;5053203;28;20033;-80
2023/06/25 09:44:20;;;;;;;5.43;1.05;;;;;;;31.46;98.34;97391.34;5052949;28;20548;-79
2023/06/25 09:46:48;;;;;;;0.40;0.40;;;;;;;31.06;94.30;97379.88;5027798;28;20480;-78
2023/06/25 09:49:15;;;;;;;0.60;0.60;;;;;;;30.85;97.09;97391.31;5052681;28;20044;-77
2023/06/25 09:51:56;;;;;;;0.60;0.57;;;;;;;30.49;98.83;97390.13;5035974;28;20455;-78
2023/06/25 09:54:23;;;;;;;1.45;0.80;;;;;;;31.24;97.49;97384.56;5052577;28;20028;-78
2023/06/25 09:56:49;;;;;;;0.35;0.35;;;;;;;31.74;91.13;97376.97;5036136;28;20029;-79
2023/06/25 09:59:16;;;;;;;0.28;0.25;;;;;;;32.13;88.07;97363.47;5052274;28;20029;-79
2023/06/25 10:01:41;;;;;;;0.40;0.40;;;;;;;33.68;78.76;97364.81;5035620;28;20488;-79
2023/06/25 10:04:07;;;;;;;1.33;1.15;;;;;;;34.67;72.73;97360.63;5070348;28;20035;-78
2023/06/25 10:06:34;;;;;;;1.60;0.93;;;;;;;35.56;61.76;97361.47;5052506;28;20021;-79
2023/06/25 10:09:02;;;;;;;0.55;0.50;;;;;;;37.05;51.11;97324.59;5036055;28;20094;-79
2023/06/25 10:11:28;;;;;;;2.17;0.75;;;;;;;37.33;49.38;97327.03;5035906;28;20115;-79
2023/06/25 10:13:53;;;;;;;1.02;0.43;;;;;;;36.79;52.93;97332.75;5052507;28;20158;-79
2023/06/25 10:16:19;;;;;;;0.55;0.55;;;;;;;36.53;51.87;97324.47;5052076;28;20102;-79
2023/06/25 10:18:46;;;;;;;0.55;0.55;;;;;;;37.18;49.95;97318.56;5052812;28;20166;-79
2023/06/25 10:21:23;;;;;;;4.13;0.98;;;;;;;37.50;46.88;97305.38;5051976;28;20082;-80
2023/06/25 10:24:00;;;;;;;0.40;0.40;;;;;;;37.30;49.94;97311.66;5052783;28;20021;-80
2023/06/25 10:26:29;;;;;;;0.30;0.30;;;;;;;36.60;51.71;97312.00;5051956;28;20032;-80
2023/06/25 10:28:56;;;;;;;1.40;0.70;;;;;;;36.60;51.84;97303.63;5052378;28;20032;-79
2023/06/25 10:31:22;;;;;;;0.75;0.38;;;;;;;36.61;50.75;97296.09;5035372;28;20024;-79
2023/06/25 10:33:47;;;;;;;0.35;0.35;;;;;;;37.63;48.26;97279.72;5035943;28;20389;-80
2023/06/25 10:36:13;;;;;;;0.25;0.25;;;;;;;38.25;44.82;97270.41;5070215;28;20020;-80
2023/06/25 10:38:39;;;;;;;7.03;3.38;;;;;;;37.43;48.28;97282.41;5070316;28;20586;-80
2023/06/25 10:41:05;;;;;;;7.50;3.63;;;;;;;37.71;44.92;97259.66;5052161;28;20103;-79
2023/06/25 10:43:30;;;;;;;7.30;3.90;;;;;;;36.71;47.32;97257.97;5052049;28;20040;-79
2023/06/25 10:45:57;;;;;;;7.78;4.00;;;;;;;36.16;50.68;97258.31;5052308;28;20020;-79
2023/06/25 10:48:24;;;;;;;7.32;3.63;;;;;;;36.38;49.98;97253.50;5051792;28;20044;-79
2023/06/25 10:50:51;;;;;;;10.60;3.95;;;;;;;36.17;52.03;97262.81;5035504;28;20083;-79
2023/06/25 10:53:22;;;;;;;8.43;3.78;;;;;;;36.43;50.00;97256.31;5052270;28;20476;-79
2023/06/25 10:55:52;;;;;;;4.65;3.90;;;;;;;37.34;49.80;97256.13;5051723;28;20024;-79
2023/06/25 10:58:19;;;;;;;4.82;3.78;;;;;;;36.82;49.43;97254.16;5051887;28;20120;-79
2023/06/25 11:00:46;;;;;;;10.02;3.55;;;;;;;37.01;46.76;97242.56;5035287;28;20090;-79
2023/06/25 11:03:12;;;;;;;4.80;3.47;;;;;;;37.01;48.80;97242.56;5052146;28;20029;-79
2023/06/25 11:05:43;;;;;;;10.27;4.70;;;;;;;36.17;48.97;97245.25;5052009;28;20016;-78
2023/06/25 11:08:08;;;;;;;7.18;3.83;;;;;;;34.99;53.80;97246.00;5045642;28;20488;-78
2023/06/25 11:10:38;;;;;;;8.68;4.70;;;;;;;34.39;58.64;97249.53;5050384;28;20051;-79
2023/06/25 11:13:04;;;;;;;11.05;4.45;;;;;;;33.74;64.39;97243.63;5054801;28;20029;-78
2023/06/25 11:15:33;;;;;;;6.57;3.60;;;;;;;32.54;72.31;97246.25;5038861;28;20025;-78
2023/06/25 11:17:59;;;;;;;8.07;3.88;;;;;;;32.19;76.38;97249.00;5048972;28;20029;-78
2023/06/25 11:20:26;;;;;;;5.97;3.80;;;;;;;32.16;78.70;97248.63;5039128;28;20500;-78
2023/06/25 11:22:51;;;;;;;7.80;3.80;;;;;;;33.18;69.85;97241.66;5047317;28;20040;-78